| time (UTC) | temp C | wind direction | speed KPH | gust KPH | rain 1hr cm | rain 24hr cm | rain mn cm | humidity % | barometer mb |
| 20260510201804 | 30 | 232 | 3.2 | 6.4 | 0.00 | 0.00 | 0.00 | 32 | 1060.6 |
| 20260510200904 | 27 | 227 | 3.2 | 11.3 | 0.00 | 0.00 | 0.00 | 34 | 1060.5 |
| 20260510200005 | 29 | 258 | 1.6 | 4.8 | 0.00 | 0.00 | 0.00 | 32 | 1060.4 |
| 20260510195404 | 27 | 229 | 3.2 | 11.3 | 0.00 | 0.00 | 0.00 | 35 | 1060.6 |
| 20260510194504 | 29 | 222 | 3.2 | 12.9 | 0.00 | 0.00 | 0.00 | 33 | 1060.5 |
| 20260510193604 | 30 | 248 | 1.6 | 6.4 | 0.00 | 0.00 | 0.00 | 32 | 1060.5 |
| 20260510192705 | 30 | 218 | 3.2 | 11.3 | 0.00 | 0.00 | 0.00 | 33 | 1060.8 |
| 20260510191825 | 29 | 207 | 3.2 | 11.3 | 0.00 | 0.00 | 0.00 | 33 | 1060.8 |
| 20260510190904 | 28 | 212 | 3.2 | 14.5 | 0.00 | 0.00 | 0.00 | 33 | 1061.0 |
| 20260510190004 | 28 | 224 | 3.2 | 14.5 | 0.00 | 0.00 | 0.00 | 35 | 1060.7 |
| 20260510185404 | 28 | 226 | 3.2 | 9.7 | 0.00 | 0.00 | 0.00 | 35 | 1061.1 |
| 20260510184504 | 28 | 268 | 1.6 | 4.8 | 0.00 | 0.00 | 0.00 | 34 | 1060.9 |
| 20260510183604 | 28 | 227 | 3.2 | 6.4 | 0.00 | 0.00 | 0.00 | 35 | 1061.1 |
| 20260510182704 | 26 | 232 | 1.6 | 9.7 | 0.00 | 0.00 | 0.00 | 41 | 1061.1 |
| 20260510181826 | 27 | 226 | 3.2 | 9.7 | 0.00 | 0.00 | 0.00 | 38 | 1061.2 |
| 20260510180904 | 26 | 202 | 3.2 | 9.7 | 0.00 | 0.00 | 0.00 | 41 | 1061.4 |
| 20260510180005 | 25 | 238 | 1.6 | 4.8 | 0.00 | 0.00 | 0.00 | 44 | 1061.4 |
| 20260510175404 | 25 | 216 | 1.6 | 4.8 | 0.00 | 0.00 | 0.00 | 43 | 1061.4 |
| 20260510174504 | 24 | 227 | 1.6 | 6.4 | 0.00 | 0.00 | 0.00 | 43 | 1061.7 |
| 20260510173604 | 25 | 207 | 3.2 | 11.3 | 0.00 | 0.00 | 0.00 | 44 | 1061.7 |
| 20260510172704 | 26 | 238 | 3.2 | 9.7 | 0.00 | 0.00 | 0.00 | 41 | 1061.8 |
| 20260510171804 | 25 | 200 | 4.8 | 12.9 | 0.00 | 0.00 | 0.00 | 44 | 1061.8 |
| 20260510170904 | 26 | 207 | 3.2 | 11.3 | 0.00 | 0.00 | 0.00 | 43 | 1061.7 |
| 20260510170025 | 25 | 228 | 3.2 | 9.7 | 0.00 | 0.00 | 0.00 | 46 | 1061.8 |
| 20260510165425 | 25 | 229 | 3.2 | 9.7 | 0.00 | 0.00 | 0.00 | 45 | 1062.0 |
| 20260510164504 | 24 | 209 | 3.2 | 9.7 | 0.00 | 0.00 | 0.00 | 47 | 1062.0 |
| 20260510163625 | 24 | 213 | 3.2 | 9.7 | 0.00 | 0.00 | 0.00 | 46 | 1062.0 |
| 20260510162704 | 24 | 223 | 3.2 | 9.7 | 0.00 | 0.00 | 0.00 | 46 | 1062.0 |
| 20260510161804 | 23 | 202 | 3.2 | 11.3 | 0.00 | 0.00 | 0.00 | 48 | 1062.0 |
| 20260510160904 | 23 | 206 | 3.2 | 6.4 | 0.00 | 0.00 | 0.00 | 48 | 1062.3 |
| 20260510160026 | 23 | 207 | 1.6 | 9.7 | 0.00 | 0.00 | 0.00 | 48 | 1062.4 |
| 20260510155404 | 23 | 217 | 1.6 | 11.3 | 0.00 | 0.00 | 0.00 | 49 | 1062.1 |
| 20260510154504 | 23 | 231 | 1.6 | 6.4 | 0.00 | 0.00 | 0.00 | 50 | 1062.3 |
| 20260510153604 | 22 | 222 | 1.6 | 9.7 | 0.00 | 0.00 | 0.00 | 50 | 1062.4 |
| 20260510152704 | 22 | 224 | 1.6 | 9.7 | 0.00 | 0.00 | 0.00 | 51 | 1062.3 |
| 20260510151804 | 22 | 285 | 1.6 | 3.2 | 0.00 | 0.00 | 0.00 | 50 | 1062.2 |
| 20260510150904 | 22 | 228 | 1.6 | 9.7 | 0.00 | 0.00 | 0.00 | 51 | 1062.3 |
| 20260510150004 | 22 | 269 | 1.6 | 4.8 | 0.00 | 0.00 | 0.00 | 53 | 1062.2 |
| 20260510145404 | 22 | 231 | 1.6 | 6.4 | 0.00 | 0.00 | 0.00 | 52 | 1062.2 |
| 20260510144504 | 21 | 240 | 1.6 | 6.4 | 0.00 | 0.00 | 0.00 | 53 | 1062.4 |
| 20260510143604 | 21 | 281 | 1.6 | 6.4 | 0.00 | 0.00 | 0.00 | 56 | 1062.4 |
| 20260510142725 | 21 | 264 | 1.6 | 3.2 | 0.00 | 0.00 | 0.00 | 55 | 1062.5 |
| 20260510141804 | 21 | 284 | 1.6 | 4.8 | 0.00 | 0.00 | 0.00 | 57 | 1062.4 |
| 20260510140904 | 20 | 228 | 1.6 | 9.7 | 0.00 | 0.00 | 0.00 | 60 | 1062.4 |
| 20260510140004 | 19 | 240 | 0.0 | 3.2 | 0.00 | 0.00 | 0.00 | 64 | 1062.4 |
| 20260510135404 | 18 | 221 | 0.0 | 4.8 | 0.00 | 0.00 | 0.00 | 66 | 1062.9 |
| 20260510134505 | 18 | 229 | 0.0 | 3.2 | 0.00 | 0.00 | 0.00 | 69 | 1062.6 |
| 20260510133604 | 17 | 244 | 0.0 | 1.6 | 0.00 | 0.00 | 0.00 | 71 | 1062.6 |
| 20260510132725 | 17 | 0 | 0.0 | 0.0 | 0.00 | 0.00 | 0.00 | 72 | 1062.9 |
| 20260510131804 | 16 | 305 | 0.0 | 1.6 | 0.00 | 0.00 | 0.00 | 72 | 1062.6 |
| 20260510130925 | 16 | 303 | 0.0 | 1.6 | 0.00 | 0.00 | 0.00 | 73 | 1062.6 |
| 20260510130004 | 15 | 310 | 0.0 | 1.6 | 0.00 | 0.00 | 0.00 | 75 | 1062.3 |
| 20260510125404 | 15 | 322 | 0.0 | 1.6 | 0.00 | 0.00 | 0.00 | 75 | 1062.3 |
| 20260510124504 | 15 | 300 | 0.0 | 1.6 | 0.00 | 0.00 | 0.00 | 77 | 1062.2 |
| 20260510123604 | 14 | 302 | 0.0 | 1.6 | 0.00 | 0.00 | 0.00 | 79 | 1062.3 |
| 20260510122704 | 13 | 0 | 0.0 | 0.0 | 0.00 | 0.00 | 0.00 | 80 | 1062.1 |
| 20260510121804 | 13 | 0 | 0.0 | 0.0 | 0.00 | 0.00 | 0.00 | 81 | 1062.3 |
| 20260510120904 | 13 | 310 | 1.6 | 3.2 | 0.00 | 0.00 | 0.00 | 81 | 1061.9 |
| 20260510120004 | 12 | 310 | 0.0 | 3.2 | 0.00 | 0.00 | 0.00 | 85 | 1062.1 |
| 20260510115404 | 12 | 306 | 0.0 | 1.6 | 0.00 | 0.00 | 0.00 | 89 | 1062.1 |
| 20260510114504 | 11 | 0 | 0.0 | 0.0 | 0.00 | 0.00 | 0.00 | 89 | 1061.8 |
| 20260510113604 | 11 | 259 | 0.0 | 1.6 | 0.00 | 0.00 | 0.00 | 89 | 1061.8 |
| 20260510112704 | 11 | 256 | 0.0 | 1.6 | 0.00 | 0.00 | 0.00 | 89 | 1061.9 |
| 20260510111804 | 11 | 0 | 0.0 | 0.0 | 0.00 | 0.00 | 0.00 | 88 | 1061.7 |
| 20260510110926 | 11 | 0 | 0.0 | 0.0 | 0.00 | 0.00 | 0.00 | 88 | 1061.4 |
| 20260510110005 | 11 | 0 | 0.0 | 0.0 | 0.00 | 0.00 | 0.00 | 88 | 1061.3 |
| 20260510105425 | 10 | 0 | 0.0 | 0.0 | 0.00 | 0.00 | 0.00 | 88 | 1061.3 |
| 20260510104504 | 10 | 235 | 0.0 | 1.6 | 0.00 | 0.00 | 0.00 | 89 | 1061.0 |
| 20260510103604 | 10 | 240 | 0.0 | 1.6 | 0.00 | 0.00 | 0.00 | 88 | 1060.9 |
| 20260510102704 | 11 | 0 | 0.0 | 0.0 | 0.00 | 0.00 | 0.00 | 86 | 1060.9 |
| 20260510101825 | 11 | 298 | 0.0 | 1.6 | 0.00 | 0.00 | 0.00 | 85 | 1060.8 |
| 20260510100925 | 12 | 302 | 0.0 | 1.6 | 0.00 | 0.00 | 0.00 | 83 | 1060.6 |
| 20260510100004 | 12 | 309 | 0.0 | 1.6 | 0.00 | 0.00 | 0.00 | 83 | 1060.5 |
| 20260510095425 | 12 | 315 | 0.0 | 1.6 | 0.00 | 0.00 | 0.00 | 83 | 1060.5 |
| 20260510094504 | 12 | 308 | 0.0 | 1.6 | 0.00 | 0.00 | 0.00 | 83 | 1060.4 |
| 20260510093604 | 12 | 304 | 0.0 | 1.6 | 0.00 | 0.00 | 0.00 | 83 | 1060.4 |
| 20260510092704 | 12 | 306 | 0.0 | 1.6 | 0.00 | 0.00 | 0.00 | 83 | 1060.2 |
| 20260510091804 | 12 | 305 | 1.6 | 1.6 | 0.00 | 0.00 | 0.00 | 83 | 1060.2 |
| 20260510090904 | 12 | 293 | 1.6 | 3.2 | 0.00 | 0.00 | 0.00 | 83 | 1060.2 |
| 20260510090004 | 11 | 300 | 0.0 | 1.6 | 0.00 | 0.00 | 0.00 | 85 | 1059.8 |
| 20260510085404 | 10 | 238 | 0.0 | 1.6 | 0.00 | 0.00 | 0.00 | 87 | 1060.1 |
| 20260510084504 | 11 | 230 | 0.0 | 1.6 | 0.00 | 0.00 | 0.00 | 86 | 1060.0 |
| 20260510083604 | 11 | 0 | 0.0 | 0.0 | 0.00 | 0.00 | 0.00 | 84 | 1060.1 |
| 20260510082704 | 11 | 0 | 0.0 | 0.0 | 0.00 | 0.00 | 0.00 | 84 | 1060.1 |
| 20260510081804 | 11 | 0 | 0.0 | 0.0 | 0.00 | 0.00 | 0.00 | 84 | 1059.7 |
| 20260510080904 | 11 | 245 | 0.0 | 1.6 | 0.00 | 0.00 | 0.00 | 84 | 1060.0 |
| 20260510080004 | 12 | 237 | 0.0 | 1.6 | 0.00 | 0.00 | 0.00 | 81 | 1059.6 |
| 20260510075404 | 12 | 0 | 0.0 | 0.0 | 0.00 | 0.00 | 0.00 | 83 | 1059.5 |
| 20260510074504 | 11 | 0 | 0.0 | 0.0 | 0.00 | 0.00 | 0.00 | 83 | 1059.3 |
| 20260510073604 | 11 | 0 | 0.0 | 0.0 | 0.00 | 0.00 | 0.00 | 83 | 1059.3 |
| 20260510072704 | 11 | 0 | 0.0 | 0.0 | 0.00 | 0.00 | 0.00 | 83 | 1059.3 |
| 20260510071804 | 11 | 0 | 0.0 | 0.0 | 0.00 | 0.00 | 0.00 | 82 | 1059.3 |
| 20260510070904 | 12 | 0 | 0.0 | 0.0 | 0.00 | 0.00 | 0.00 | 81 | 1059.2 |
| 20260510070004 | 12 | 0 | 0.0 | 0.0 | 0.00 | 0.00 | 0.00 | 80 | 1059.3 |
| 20260510065404 | 12 | 0 | 0.0 | 0.0 | 0.00 | 0.00 | 0.00 | 80 | 1059.3 |
| 20260510064525 | 12 | 291 | 0.0 | 1.6 | 0.00 | 0.00 | 0.00 | 79 | 1059.1 |
| 20260510063625 | 12 | 0 | 0.0 | 0.0 | 0.00 | 0.00 | 0.00 | 78 | 1059.1 |
| 20260510062704 | 12 | 337 | 0.0 | 1.6 | 0.00 | 0.00 | 0.00 | 77 | 1059.3 |
| 20260510061804 | 13 | 254 | 0.0 | 1.6 | 0.00 | 0.00 | 0.00 | 77 | 1059.5 |
| 20260510060904 | 13 | 0 | 0.0 | 0.0 | 0.00 | 0.00 | 0.00 | 75 | 1059.3 |
| 20260510060004 | 13 | 225 | 0.0 | 1.6 | 0.00 | 0.00 | 0.00 | 74 | 1059.2 |
| 20260510055425 | 14 | 285 | 0.0 | 1.6 | 0.00 | 0.00 | 0.00 | 72 | 1059.4 |
| 20260510054525 | 15 | 310 | 1.6 | 3.2 | 0.00 | 0.00 | 0.00 | 70 | 1059.3 |
| 20260510053625 | 15 | 309 | 1.6 | 3.2 | 0.00 | 0.00 | 0.00 | 70 | 1059.3 |
| 20260510052704 | 13 | 0 | 0.0 | 0.0 | 0.00 | 0.00 | 0.00 | 74 | 1059.4 |
| 20260510051804 | 13 | 0 | 0.0 | 0.0 | 0.00 | 0.00 | 0.00 | 75 | 1059.3 |
| 20260510050904 | 13 | 251 | 0.0 | 1.6 | 0.00 | 0.00 | 0.00 | 74 | 1059.4 |
| 20260510050004 | 14 | 0 | 0.0 | 0.0 | 0.00 | 0.00 | 0.00 | 71 | 1059.5 |
| 20260510045404 | 14 | 0 | 0.0 | 0.0 | 0.00 | 0.00 | 0.00 | 71 | 1059.6 |
| 20260510044504 | 15 | 310 | 0.0 | 1.6 | 0.00 | 0.00 | 0.00 | 70 | 1059.4 |
| 20260510043604 | 15 | 310 | 0.0 | 1.6 | 0.00 | 0.00 | 0.00 | 68 | 1059.1 |
| 20260510042704 | 15 | 247 | 0.0 | 1.6 | 0.00 | 0.00 | 0.00 | 68 | 1059.4 |
| 20260510041804 | 15 | 0 | 0.0 | 0.0 | 0.00 | 0.00 | 0.00 | 66 | 1059.4 |
| 20260510040904 | 15 | 236 | 0.0 | 1.6 | 0.00 | 0.00 | 0.00 | 68 | 1059.3 |
| 20260510040005 | 16 | 231 | 0.0 | 1.6 | 0.00 | 0.00 | 0.00 | 67 | 1059.3 |
| 20260510035404 | 16 | 0 | 0.0 | 0.0 | 0.00 | 0.00 | 0.00 | 64 | 1059.1 |
| 20260510034504 | 15 | 286 | 0.0 | 1.6 | 0.00 | 0.00 | 0.00 | 66 | 1059.5 |
| 20260510033604 | 15 | 221 | 0.0 | 3.2 | 0.00 | 0.00 | 0.00 | 66 | 1059.3 |
| 20260510032725 | 16 | 210 | 0.0 | 3.2 | 0.00 | 0.00 | 0.00 | 65 | 1059.1 |
| 20260510031804 | 16 | 0 | 0.0 | 0.0 | 0.00 | 0.00 | 0.00 | 61 | 1059.1 |
| 20260510030925 | 16 | 0 | 0.0 | 0.0 | 0.00 | 0.00 | 0.00 | 63 | 1059.1 |
| 20260510030004 | 16 | 0 | 0.0 | 0.0 | 0.00 | 0.00 | 0.00 | 60 | 1059.0 |
| 20260510025404 | 16 | 0 | 0.0 | 0.0 | 0.00 | 0.00 | 0.00 | 61 | 1058.9 |
| 20260510024504 | 16 | 0 | 0.0 | 0.0 | 0.00 | 0.00 | 0.00 | 60 | 1059.1 |
| 20260510023604 | 16 | 281 | 0.0 | 1.6 | 0.00 | 0.00 | 0.00 | 59 | 1058.7 |
| 20260510022704 | 16 | 319 | 0.0 | 1.6 | 0.00 | 0.00 | 0.00 | 59 | 1058.9 |
| 20260510021825 | 16 | 322 | 0.0 | 1.6 | 0.00 | 0.00 | 0.00 | 60 | 1058.7 |
| 20260510020904 | 17 | 239 | 0.0 | 1.6 | 0.00 | 0.00 | 0.00 | 60 | 1058.5 |
| 20260510020025 | 17 | 249 | 0.0 | 3.2 | 0.00 | 0.00 | 0.00 | 60 | 1058.4 |
| 20260510015425 | 17 | 0 | 0.0 | 0.0 | 0.00 | 0.00 | 0.00 | 59 | 1058.4 |
| 20260510014504 | 17 | 0 | 0.0 | 0.0 | 0.00 | 0.00 | 0.00 | 59 | 1058.0 |
| 20260510013604 | 17 | 0 | 0.0 | 0.0 | 0.00 | 0.00 | 0.00 | 59 | 1057.8 |
| 20260510012704 | 17 | 0 | 0.0 | 0.0 | 0.00 | 0.00 | 0.00 | 58 | 1057.6 |
| 20260510011825 | 17 | 275 | 0.0 | 1.6 | 0.00 | 0.00 | 0.00 | 60 | 1057.7 |
| 20260510010904 | 17 | 0 | 0.0 | 0.0 | 0.00 | 0.00 | 0.00 | 57 | 1057.6 |
| 20260510010004 | 17 | 0 | 0.0 | 0.0 | 0.00 | 0.00 | 0.00 | 59 | 1057.4 |
| 20260510005404 | 18 | 0 | 0.0 | 0.0 | 0.00 | 0.00 | 0.00 | 55 | 1057.5 |
| 20260510004504 | 18 | 278 | 0.0 | 1.6 | 0.00 | 0.00 | 0.00 | 54 | 1057.0 |
| 20260510003604 | 18 | 0 | 0.0 | 0.0 | 0.00 | 0.00 | 0.00 | 54 | 1057.4 |
| 20260510002704 | 19 | 253 | 0.0 | 1.6 | 0.00 | 0.00 | 0.00 | 54 | 1057.3 |
| 20260510001825 | 20 | 248 | 0.0 | 1.6 | 0.00 | 0.00 | 0.00 | 48 | 1057.2 |
| 20260510000904 | 20 | 243 | 0.0 | 3.2 | 0.00 | 0.00 | 0.00 | 47 | 1056.9 |
| 20260510000025 | 21 | 226 | 1.6 | 4.8 | 0.00 | 0.00 | 0.00 | 44 | 1056.6 |
| 20260509235404 | 20 | 234 | 1.6 | 4.8 | 0.00 | 0.00 | 0.00 | 46 | 1056.6 |
| 20260509234504 | 21 | 220 | 1.6 | 4.8 | 0.00 | 0.00 | 0.00 | 44 | 1056.5 |
| 20260509233625 | 21 | 225 | 1.6 | 4.8 | 0.00 | 0.00 | 0.00 | 43 | 1056.3 |
| 20260509232704 | 21 | 213 | 1.6 | 6.4 | 0.00 | 0.00 | 0.00 | 42 | 1056.5 |
| 20260509231804 | 22 | 212 | 3.2 | 9.7 | 0.00 | 0.00 | 0.00 | 43 | 1056.1 |
| 20260509230904 | 22 | 223 | 1.6 | 6.4 | 0.00 | 0.00 | 0.00 | 44 | 1056.2 |
| 20260509230004 | 22 | 218 | 3.2 | 11.3 | 0.00 | 0.00 | 0.00 | 42 | 1055.9 |
| 20260509225404 | 22 | 226 | 1.6 | 11.3 | 0.00 | 0.00 | 0.00 | 43 | 1055.9 |
| 20260509224504 | 22 | 230 | 1.6 | 6.4 | 0.00 | 0.00 | 0.00 | 44 | 1056.1 |
| 20260509223604 | 22 | 209 | 1.6 | 9.7 | 0.00 | 0.00 | 0.00 | 44 | 1055.9 |
| 20260509222704 | 22 | 235 | 1.6 | 4.8 | 0.00 | 0.00 | 0.00 | 45 | 1056.0 |
| 20260509221804 | 22 | 217 | 1.6 | 11.3 | 0.00 | 0.00 | 0.00 | 45 | 1055.9 |
| 20260509220904 | 22 | 222 | 1.6 | 9.7 | 0.00 | 0.00 | 0.00 | 46 | 1056.0 |
| 20260509220004 | 22 | 227 | 1.6 | 6.4 | 0.00 | 0.00 | 0.00 | 46 | 1055.8 |
| 20260509215404 | 22 | 233 | 1.6 | 4.8 | 0.00 | 0.00 | 0.00 | 45 | 1055.9 |
| 20260509214504 | 22 | 238 | 1.6 | 4.8 | 0.00 | 0.00 | 0.00 | 44 | 1055.8 |
| 20260509213625 | 23 | 234 | 1.6 | 4.8 | 0.00 | 0.00 | 0.00 | 44 | 1055.7 |
| 20260509212725 | 23 | 214 | 1.6 | 9.7 | 0.00 | 0.00 | 0.00 | 43 | 1055.7 |
| 20260509211804 | 23 | 234 | 1.6 | 4.8 | 0.00 | 0.00 | 0.00 | 43 | 1055.7 |
| 20260509210904 | 23 | 225 | 1.6 | 6.4 | 0.00 | 0.00 | 0.00 | 43 | 1055.5 |
| 20260509210004 | 25 | 227 | 3.2 | 11.3 | 0.00 | 0.00 | 0.00 | 38 | 1055.4 |
| 20260509205404 | 26 | 231 | 3.2 | 11.3 | 0.00 | 0.00 | 0.00 | 37 | 1055.4 |
| 20260509204525 | 26 | 222 | 3.2 | 11.3 | 0.00 | 0.00 | 0.00 | 35 | 1055.4 |
| 20260509203604 | 24 | 232 | 3.2 | 6.4 | 0.00 | 0.00 | 0.00 | 41 | 1055.4 |